Time;durP1;ratioP1;P1;durP2;ratioP2;P2;SDS_P1;SDS_P2;PMS_P1;PMS_P2;Temp;Humidity;BMP_temperature;BMP_pressure;BME280_temperature;BME280_humidity;BME280_pressure;Samples;Min_cycle;Max_cycle;Signal;HPM_P1;HPM_P2
2020/12/03 00:00:40;;;;;;;45.60;16.03;;;;;;;2.49;100.00;102321.13;5011959;28;20806;-75
2020/12/03 00:03:16;;;;;;;32.67;11.90;;;;;;;2.47;100.00;102318.56;5015210;28;20568;-74
2020/12/03 00:05:43;;;;;;;35.13;16.27;;;;;;;2.29;100.00;102313.53;5010111;28;20425;-74
2020/12/03 00:08:10;;;;;;;29.60;11.57;;;;;;;2.43;100.00;102314.28;5011674;28;20823;-74
2020/12/03 00:10:36;;;;;;;32.53;10.13;;;;;;;2.48;100.00;102319.44;5011379;28;20480;-75
2020/12/03 00:13:09;;;;;;;37.63;12.40;;;;;;;2.54;100.00;102321.13;5011098;28;20429;-74
2020/12/03 00:15:34;;;;;;;24.63;9.50;;;;;;;2.50;100.00;102312.50;5011471;28;20630;-75
2020/12/03 00:18:00;;;;;;;32.53;14.07;;;;;;;2.47;100.00;102307.34;5011347;28;21133;-73
2020/12/03 00:20:26;;;;;;;27.87;8.13;;;;;;;2.43;100.00;102316.03;5013441;28;20175;-73
2020/12/03 00:22:51;;;;;;;28.57;11.50;;;;;;;2.40;100.00;102309.09;5012005;28;20198;-76
2020/12/03 00:25:17;;;;;;;32.17;11.07;;;;;;;2.42;100.00;102316.91;5009564;28;20508;-75
2020/12/03 00:27:54;;;;;;;22.57;7.90;;;;;;;2.48;100.00;102309.06;5010766;28;20606;-75
2020/12/03 00:30:20;;;;;;;22.17;9.20;;;;;;;2.46;100.00;102313.41;5010032;28;20178;-75
2020/12/03 00:32:46;;;;;;;23.77;10.30;;;;;;;2.36;100.00;102317.81;4993269;28;20882;-74
2020/12/03 00:35:13;;;;;;;35.27;9.27;;;;;;;2.42;100.00;102320.34;5008221;28;20568;-73
2020/12/03 00:37:40;;;;;;;26.77;11.60;;;;;;;2.49;100.00;102315.97;4992790;28;20563;-75
2020/12/03 00:40:06;;;;;;;27.47;9.53;;;;;;;2.46;100.00;102314.25;5010992;28;20460;-73
2020/12/03 00:42:32;;;;;;;29.00;10.73;;;;;;;2.36;100.00;102310.03;5011039;28;20409;-75
2020/12/03 00:44:58;;;;;;;25.87;8.90;;;;;;;2.46;100.00;102301.28;5010922;28;20182;-74
2020/12/03 00:47:23;;;;;;;28.70;11.40;;;;;;;2.43;100.00;102301.31;5011962;28;20182;-75
2020/12/03 00:49:49;;;;;;;27.50;11.87;;;;;;;2.55;100.00;102296.91;4977167;28;20215;-75
2020/12/03 00:52:14;;;;;;;19.43;8.40;;;;;;;2.51;100.00;102293.47;5010727;28;20269;-74
2020/12/03 00:54:42;;;;;;;30.47;9.30;;;;;;;2.50;100.00;102300.41;5010096;28;20178;-75
2020/12/03 00:57:07;;;;;;;18.90;6.57;;;;;;;2.49;100.00;102303.00;4998848;28;20177;-74
2020/12/03 00:59:36;;;;;;;25.80;11.47;;;;;;;2.52;100.00;102299.53;5011030;28;20432;-74
2020/12/03 01:02:04;;;;;;;21.27;8.70;;;;;;;2.50;100.00;102302.13;5009338;28;20182;-75
2020/12/03 01:04:30;;;;;;;19.57;7.30;;;;;;;2.54;100.00;102298.63;5010808;28;20413;-76
2020/12/03 01:06:55;;;;;;;23.97;9.77;;;;;;;2.64;100.00;102300.25;5015032;28;20432;-75
2020/12/03 01:09:21;;;;;;;25.77;11.20;;;;;;;2.60;100.00;102301.19;5009561;28;20209;-74
2020/12/03 01:11:46;;;;;;;39.80;9.70;;;;;;;2.61;100.00;102299.44;5008882;28;20197;-75
2020/12/03 01:14:12;;;;;;;25.27;6.00;;;;;;;2.46;100.00;102290.91;5010169;28;20171;-74
2020/12/03 01:16:38;;;;;;;28.70;8.90;;;;;;;2.51;100.00;102285.69;5010313;28;20526;-74
2020/12/03 01:19:03;;;;;;;20.30;6.57;;;;;;;2.49;100.00;102285.72;5010590;28;20197;-74
2020/12/03 01:21:29;;;;;;;25.13;8.83;;;;;;;2.41;100.00;102284.03;5011844;28;20447;-75
2020/12/03 01:23:54;;;;;;;28.20;10.27;;;;;;;2.34;100.00;102283.22;5014556;28;20174;-75
2020/12/03 01:26:20;;;;;;;21.93;7.23;;;;;;;2.41;100.00;102277.13;5019444;28;20700;-74
2020/12/03 01:28:46;;;;;;;16.33;7.57;;;;;;;2.43;100.00;102277.97;5014227;28;20232;-75
2020/12/03 01:31:12;;;;;;;26.67;10.17;;;;;;;2.49;100.00;102274.47;5014461;28;20159;-74
2020/12/03 01:33:39;;;;;;;27.90;9.37;;;;;;;2.40;100.00;102275.41;5014603;28;20401;-75
2020/12/03 01:36:06;;;;;;;26.70;10.37;;;;;;;2.54;100.00;102271.84;5014198;28;20305;-73
2020/12/03 01:38:31;;;;;;;26.40;9.07;;;;;;;2.50;100.00;102276.22;5014373;28;20453;-75
2020/12/03 01:40:57;;;;;;;29.13;10.00;;;;;;;2.50;100.00;102273.59;5013602;28;20417;-74
2020/12/03 01:43:22;;;;;;;25.23;8.30;;;;;;;2.53;100.00;102272.72;5014094;28;20198;-73
2020/12/03 01:45:50;;;;;;;21.67;8.40;;;;;;;2.42;100.00;102267.63;5013650;28;20645;-74
2020/12/03 01:48:35;;;;;;;28.30;8.73;;;;;;;2.30;100.00;102268.56;5014054;28;20174;-73
2020/12/03 01:51:14;;;;;;;27.03;7.63;;;;;;;2.22;100.00;102266.03;5012965;28;20417;-74
2020/12/03 01:53:40;;;;;;;36.57;12.20;;;;;;;2.42;100.00;102263.31;5015177;28;20417;-74
2020/12/03 01:56:22;;;;;;;24.77;9.00;;;;;;;2.54;100.00;102258.88;5014371;28;20815;-73
2020/12/03 01:58:48;;;;;;;24.50;9.00;;;;;;;2.57;100.00;102256.22;5013118;28;20437;-74
2020/12/03 02:01:13;;;;;;;25.10;9.07;;;;;;;2.63;100.00;102264.81;5004846;28;20463;-74
2020/12/03 02:03:45;;;;;;;23.33;8.53;;;;;;;2.63;100.00;102257.03;5013581;28;20186;-74
2020/12/03 02:06:14;;;;;;;25.53;8.70;;;;;;;2.70;100.00;102269.09;5014297;28;20652;-74
2020/12/03 02:08:40;;;;;;;19.20;7.63;;;;;;;2.77;100.00;102262.97;5013198;28;20487;-75
2020/12/03 02:11:05;;;;;;;35.07;13.47;;;;;;;2.79;100.00;102260.34;5014173;28;20417;-74
2020/12/03 02:13:31;;;;;;;28.40;8.67;;;;;;;2.81;100.00;102263.81;5013841;28;20265;-74
2020/12/03 02:15:56;;;;;;;24.40;8.87;;;;;;;2.76;100.00;102262.97;5013493;28;20177;-75
2020/12/03 02:18:22;;;;;;;19.40;8.90;;;;;;;2.74;100.00;102265.59;5013580;28;20573;-76
2020/12/03 02:20:47;;;;;;;24.67;9.47;;;;;;;2.76;100.00;102258.66;5012967;28;20190;-75
2020/12/03 02:23:16;;;;;;;21.77;8.87;;;;;;;2.84;100.00;102261.16;5013311;28;20676;-75
2020/12/03 02:25:42;;;;;;;29.70;9.87;;;;;;;2.72;100.00;102256.97;5013214;28;20245;-75
2020/12/03 02:28:08;;;;;;;32.37;11.07;;;;;;;2.69;100.00;102261.31;4995996;28;20430;-74
2020/12/03 02:30:33;;;;;;;25.10;9.73;;;;;;;2.87;100.00;102245.59;5013584;28;20262;-73
2020/12/03 02:32:59;;;;;;;23.17;7.63;;;;;;;2.87;100.00;102250.78;5011639;28;20645;-74
2020/12/03 02:35:24;;;;;;;19.63;7.63;;;;;;;2.81;100.00;102247.38;5012571;28;20225;-73
2020/12/03 02:37:50;;;;;;;19.57;7.83;;;;;;;2.89;100.00;102251.59;5013073;28;20238;-74
2020/12/03 02:40:15;;;;;;;22.87;7.67;;;;;;;2.83;100.00;102253.41;5013403;28;20179;-74
2020/12/03 02:42:41;;;;;;;20.47;8.17;;;;;;;2.88;100.00;102249.88;5013182;28;20653;-73
2020/12/03 02:45:07;;;;;;;28.20;10.37;;;;;;;2.84;100.00;102253.38;5013378;28;20177;-74
2020/12/03 02:47:32;;;;;;;19.50;7.07;;;;;;;2.85;100.00;102257.69;5013464;28;20626;-75
2020/12/03 02:49:58;;;;;;;26.40;9.00;;;;;;;2.89;100.00;102248.16;5012854;28;20497;-75
2020/12/03 02:52:25;;;;;;;32.40;10.20;;;;;;;2.88;100.00;102246.44;5013073;28;20231;-74
2020/12/03 02:54:51;;;;;;;24.00;9.07;;;;;;;2.84;100.00;102257.72;5012208;28;20170;-75
2020/12/03 02:57:18;;;;;;;23.47;9.23;;;;;;;2.61;100.00;102257.94;5013003;28;20449;-74
2020/12/03 02:59:44;;;;;;;21.37;8.50;;;;;;;2.63;100.00;102257.03;5012293;28;20492;-74
2020/12/03 03:02:10;;;;;;;25.27;8.20;;;;;;;2.54;100.00;102257.13;5012085;28;20432;-75
2020/12/03 03:04:36;;;;;;;25.10;9.30;;;;;;;2.71;100.00;102251.78;5013009;28;20425;-73
2020/12/03 03:07:01;;;;;;;32.43;10.03;;;;;;;2.56;100.00;102251.91;5012656;28;20174;-73
2020/12/03 03:09:27;;;;;;;32.50;8.20;;;;;;;2.64;100.00;102242.31;5012764;28;20182;-74
2020/12/03 03:11:53;;;;;;;25.13;8.60;;;;;;;2.34;100.00;102248.66;5012544;28;20182;-74
2020/12/03 03:14:19;;;;;;;29.60;9.60;;;;;;;2.45;100.00;102241.66;5012727;28;20255;-75
2020/12/03 03:16:45;;;;;;;22.17;7.80;;;;;;;2.23;100.00;102244.41;5012286;28;20228;-75
2020/12/03 03:19:10;;;;;;;22.13;9.67;;;;;;;2.18;100.00;102243.59;5012336;28;20449;-75
2020/12/03 03:21:36;;;;;;;25.60;8.47;;;;;;;2.23;100.00;102251.34;5012205;28;20458;-74
2020/12/03 03:24:02;;;;;;;21.97;6.87;;;;;;;2.22;100.00;102242.72;5012060;28;20240;-75
2020/12/03 03:26:27;;;;;;;24.73;8.37;;;;;;;2.26;100.00;102246.13;5012793;28;20178;-75
2020/12/03 03:28:53;;;;;;;23.83;9.17;;;;;;;2.05;100.00;102249.75;5012165;28;20170;-75
2020/12/03 03:31:19;;;;;;;21.20;8.10;;;;;;;2.08;100.00;102244.53;5012551;28;20205;-74
2020/12/03 03:33:46;;;;;;;23.80;8.00;;;;;;;2.25;100.00;102244.41;5010985;28;20232;-76
2020/12/03 03:36:11;;;;;;;23.23;8.17;;;;;;;2.26;100.00;102251.31;5011950;28;20491;-74
2020/12/03 03:38:37;;;;;;;26.13;8.37;;;;;;;2.38;100.00;102252.94;5011521;28;20987;-75
2020/12/03 03:41:04;;;;;;;25.23;9.87;;;;;;;2.29;100.00;102246.13;5011658;28;20620;-75
2020/12/03 03:43:29;;;;;;;26.13;9.27;;;;;;;2.25;100.00;102257.38;5011873;28;20245;-76
2020/12/03 03:45:55;;;;;;;24.90;8.67;;;;;;;2.31;100.00;102246.09;5011676;28;20416;-75
2020/12/03 03:48:21;;;;;;;17.10;7.53;;;;;;;2.25;100.00;102243.53;5011709;28;20186;-75
2020/12/03 03:50:47;;;;;;;17.07;6.20;;;;;;;2.15;100.00;102247.94;5011825;28;20222;-76
2020/12/03 03:53:13;;;;;;;25.33;12.60;;;;;;;2.45;100.00;102265.84;5011776;28;20858;-76
2020/12/03 03:55:39;;;;;;;30.50;9.27;;;;;;;2.42;100.00;102278.88;5011611;28;20163;-75
2020/12/03 03:58:08;;;;;;;26.37;8.47;;;;;;;2.58;100.00;102277.00;5011545;28;20456;-77
2020/12/03 04:00:43;;;;;;;29.23;9.97;;;;;;;2.65;100.00;102272.63;5011824;28;20227;-75
2020/12/03 04:03:13;;;;;;;23.07;8.50;;;;;;;2.47;100.00;102265.84;5010347;28;20409;-73
2020/12/03 04:05:43;;;;;;;24.57;9.37;;;;;;;2.60;100.00;102254.47;5010076;28;20644;-73
2020/12/03 04:08:10;;;;;;;18.83;8.00;;;;;;;2.58;100.00;102265.75;5011796;28;20416;-76
2020/12/03 04:10:35;;;;;;;25.93;9.40;;;;;;;2.55;100.00;102260.56;5011014;28;20425;-76
2020/12/03 04:13:01;;;;;;;22.10;8.20;;;;;;;2.60;100.00;102266.59;5015316;28;20425;-74
2020/12/03 04:15:26;;;;;;;21.93;8.70;;;;;;;2.61;100.00;102263.13;5015919;28;20174;-76
2020/12/03 04:17:52;;;;;;;25.47;9.20;;;;;;;2.72;100.00;102261.28;5011040;28;20256;-74
2020/12/03 04:20:18;;;;;;;26.27;9.47;;;;;;;2.48;100.00;102278.78;5011228;28;20281;-73
2020/12/03 04:22:44;;;;;;;24.87;9.60;;;;;;;2.69;100.00;102269.09;5011101;28;20181;-74
2020/12/03 04:25:11;;;;;;;28.80;12.00;;;;;;;2.63;100.00;102258.78;5011926;28;20545;-75
2020/12/03 04:27:36;;;;;;;22.50;8.43;;;;;;;2.66;100.00;102264.81;5012090;28;20412;-74
2020/12/03 04:30:06;;;;;;;22.27;8.47;;;;;;;2.61;100.00;102266.56;5011313;28;20922;-74
2020/12/03 04:32:32;;;;;;;21.47;9.50;;;;;;;2.77;100.00;102254.31;5010768;28;20172;-74
2020/12/03 04:34:58;;;;;;;32.77;10.30;;;;;;;2.73;100.00;102258.69;5011508;28;20461;-74
2020/12/03 04:37:23;;;;;;;29.43;11.63;;;;;;;2.75;100.00;102263.88;5011680;28;20277;-74
2020/12/03 04:39:49;;;;;;;29.17;8.93;;;;;;;2.87;100.00;102255.06;5011365;28;20166;-73
2020/12/03 04:42:30;;;;;;;26.70;11.80;;;;;;;2.94;100.00;102270.56;5011368;28;20174;-76
2020/12/03 04:45:30;;;;;;;34.63;13.40;;;;;;;2.95;100.00;102272.31;4993733;28;20276;-75
2020/12/03 04:48:02;;;;;;;36.03;12.40;;;;;;;2.96;100.00;102266.25;5011252;28;20424;-74
2020/12/03 04:50:40;;;;;;;21.03;10.17;;;;;;;3.04;100.00;102272.22;5011708;28;20790;-75
2020/12/03 04:53:42;;;;;;;31.40;11.13;;;;;;;3.04;100.00;102268.75;5010222;28;20413;-74
2020/12/03 04:56:21;;;;;;;29.57;10.67;;;;;;;3.02;100.00;102270.47;4960258;28;20425;-74
2020/12/03 04:58:59;;;;;;;25.80;11.17;;;;;;;2.96;100.00;102257.59;5011223;28;20809;-75
2020/12/03 05:01:37;;;;;;;32.03;10.70;;;;;;;2.92;100.00;102251.56;5010730;28;20421;-74
2020/12/03 05:04:33;;;;;;;24.03;10.60;;;;;;;2.78;100.00;102250.84;5008609;28;21940;-74
2020/12/03 05:07:07;;;;;;;27.47;9.47;;;;;;;2.93;100.00;102253.28;5003147;28;20433;-74
2020/12/03 05:09:42;;;;;;;28.97;11.97;;;;;;;2.95;100.00;102254.16;5009447;28;20511;-75
2020/12/03 05:12:23;;;;;;;21.30;9.30;;;;;;;2.96;100.00;102261.06;5009190;28;20512;-76
2020/12/03 05:14:56;;;;;;;26.57;10.00;;;;;;;2.98;100.00;102256.69;5010609;28;20817;-75
2020/12/03 05:17:42;;;;;;;19.23;8.90;;;;;;;2.90;100.00;102239.50;5008884;28;20417;-74
2020/12/03 05:20:11;;;;;;;23.00;10.07;;;;;;;2.65;100.00;102247.53;5010464;28;20448;-75
2020/12/03 05:22:37;;;;;;;22.53;9.07;;;;;;;2.54;100.00;102244.16;5011310;28;20406;-75
2020/12/03 05:25:04;;;;;;;35.53;10.03;;;;;;;2.61;100.00;102238.03;5009706;28;20802;-78
2020/12/03 05:27:33;;;;;;;28.03;10.63;;;;;;;2.70;100.00;102234.50;5007532;28;20542;-77
2020/12/03 05:30:03;;;;;;;27.10;10.83;;;;;;;2.69;100.00;102230.19;5011115;28;20455;-77
2020/12/03 05:32:29;;;;;;;23.57;10.13;;;;;;;2.79;100.00;102232.66;5007722;28;20428;-75
2020/12/03 05:34:54;;;;;;;34.80;12.57;;;;;;;2.66;100.00;102228.50;5008589;28;20887;-74
2020/12/03 05:37:22;;;;;;;24.80;9.90;;;;;;;2.80;100.00;102230.94;5009392;28;20179;-75
2020/12/03 05:39:56;;;;;;;23.60;9.90;;;;;;;2.86;100.00;102228.25;4998681;28;20175;-77
2020/12/03 05:42:30;;;;;;;20.83;9.40;;;;;;;2.93;100.00;102229.91;5011137;28;20413;-77
2020/12/03 05:45:07;;;;;;;29.40;9.67;;;;;;;2.94;100.00;102231.63;5009122;28;20424;-75
2020/12/03 05:47:36;;;;;;;22.27;9.90;;;;;;;3.03;100.00;102233.28;4991754;28;20437;-74
2020/12/03 05:50:07;;;;;;;25.93;9.77;;;;;;;3.13;100.00;102237.50;5010345;28;20472;-75
2020/12/03 05:52:34;;;;;;;26.93;10.30;;;;;;;3.23;100.00;102241.69;5010756;28;20401;-75
2020/12/03 05:55:01;;;;;;;24.17;11.03;;;;;;;3.27;100.00;102264.16;5006365;28;20461;-73
2020/12/03 05:57:47;;;;;;;24.20;9.67;;;;;;;3.29;100.00;102253.75;5007229;28;20971;-75
2020/12/03 06:00:12;;;;;;;30.33;10.20;;;;;;;3.08;100.00;102264.38;5006516;28;20962;-76
2020/12/03 06:02:50;;;;;;;32.97;15.10;;;;;;;3.30;100.00;102258.06;5003649;28;20433;-74
2020/12/03 06:05:35;;;;;;;23.63;11.90;;;;;;;3.31;100.00;102270.16;4998996;28;20189;-76
2020/12/03 06:08:09;;;;;;;33.87;12.17;;;;;;;3.33;100.00;102271.88;4995704;28;21399;-74
2020/12/03 06:10:52;;;;;;;32.57;12.43;;;;;;;3.34;100.00;102267.56;4996309;28;20950;-76
2020/12/03 06:13:28;;;;;;;23.10;9.03;;;;;;;3.20;100.00;102274.63;4975792;28;20455;-74
2020/12/03 06:16:00;;;;;;;28.83;10.13;;;;;;;3.36;100.00;102278.78;4988469;28;20448;-76
2020/12/03 06:18:45;;;;;;;32.90;11.90;;;;;;;3.39;100.00;102270.06;4995699;28;20460;-74
2020/12/03 06:21:39;;;;;;;32.77;12.00;;;;;;;3.41;100.00;102279.59;5001503;28;20888;-74
2020/12/03 06:24:26;;;;;;;26.00;10.50;;;;;;;3.53;100.00;102270.75;5009880;28;20433;-77
2020/12/03 06:27:05;;;;;;;24.77;11.37;;;;;;;3.64;100.00;102275.84;4997150;28;20453;-73
2020/12/03 06:29:57;;;;;;;27.23;12.40;;;;;;;3.53;100.00;102263.81;5010666;28;20499;-74
2020/12/03 06:33:00;;;;;;;27.47;10.97;;;;;;;3.39;100.00;102259.69;5009138;28;20508;-74
2020/12/03 06:35:26;;;;;;;26.27;10.73;;;;;;;3.45;100.00;102257.88;5011228;28;20519;-75
2020/12/03 06:38:16;;;;;;;34.97;11.80;;;;;;;3.28;100.00;102257.22;5012576;28;20554;-73
2020/12/03 06:40:51;;;;;;;28.37;11.60;;;;;;;3.54;100.00;102254.28;5006238;28;20584;-76
2020/12/03 06:43:48;;;;;;;27.57;11.40;;;;;;;3.59;100.00;102247.31;5013818;28;20409;-75
2020/12/03 06:46:32;;;;;;;28.53;12.63;;;;;;;3.46;100.00;102249.19;5012617;28;20404;-73
2020/12/03 06:49:29;;;;;;;34.83;11.70;;;;;;;3.54;100.00;102257.75;5011827;28;20418;-73
2020/12/03 06:52:16;;;;;;;20.13;9.70;;;;;;;3.56;100.00;102256.00;5010966;28;20460;-77
2020/12/03 06:55:08;;;;;;;29.70;11.40;;;;;;;3.75;100.00;102253.16;5012608;28;20421;-72
2020/12/03 06:58:06;;;;;;;26.63;11.27;;;;;;;3.75;100.00;102253.16;5001065;28;20468;-73
2020/12/03 07:01:01;;;;;;;28.17;12.37;;;;;;;3.71;100.00;102247.16;5011391;28;20417;-73
2020/12/03 07:04:04;;;;;;;29.20;12.07;;;;;;;3.82;100.00;102245.25;5011052;28;20426;-73
2020/12/03 07:07:07;;;;;;;39.63;14.83;;;;;;;3.95;100.00;102240.72;5012636;28;20471;-73
2020/12/03 07:09:44;;;;;;;40.40;16.00;;;;;;;4.04;100.00;102240.59;5022765;28;20520;-74
2020/12/03 07:12:15;;;;;;;36.17;14.60;;;;;;;4.01;100.00;102238.03;5011373;28;20420;-73
2020/12/03 07:15:18;;;;;;;38.90;15.40;;;;;;;3.84;100.00;102235.66;5011299;28;20417;-74
2020/12/03 07:17:43;;;;;;;30.47;14.50;;;;;;;4.07;100.00;102250.06;5011187;28;21005;-74
2020/12/03 07:20:41;;;;;;;47.83;16.00;;;;;;;4.14;100.00;102251.69;4993796;28;20437;-74
2020/12/03 07:23:14;;;;;;;44.37;20.20;;;;;;;4.12;100.00;102262.13;5009785;28;20228;-74
2020/12/03 07:25:42;;;;;;;36.23;15.40;;;;;;;4.09;100.00;102267.38;5011055;28;20459;-74
2020/12/03 07:28:20;;;;;;;33.30;14.20;;;;;;;4.29;100.00;102258.41;5012157;28;20472;-74
2020/12/03 07:30:57;;;;;;;36.83;13.10;;;;;;;4.34;100.00;102262.66;5012876;28;20857;-74
2020/12/03 07:33:36;;;;;;;29.70;13.83;;;;;;;4.38;100.00;102264.34;5012356;28;20927;-74
2020/12/03 07:36:27;;;;;;;29.87;12.67;;;;;;;4.35;100.00;102266.09;5011168;28;20485;-74
2020/12/03 07:39:01;;;;;;;29.50;13.10;;;;;;;4.31;100.00;102262.72;5002856;28;20453;-73
2020/12/03 07:41:29;;;;;;;29.37;9.80;;;;;;;4.13;100.00;102261.25;5007624;28;20822;-73
2020/12/03 07:44:17;;;;;;;28.70;12.00;;;;;;;3.98;100.00;102271.88;5007108;28;20429;-73
2020/12/03 07:46:42;;;;;;;35.27;12.67;;;;;;;4.23;100.00;102274.09;5006111;28;20423;-73
2020/12/03 07:49:09;;;;;;;33.17;13.50;;;;;;;4.39;100.00;102273.00;5009899;28;20888;-75
2020/12/03 07:51:35;;;;;;;28.70;11.70;;;;;;;4.36;100.00;102273.88;5008378;28;20166;-73
2020/12/03 07:54:16;;;;;;;34.10;14.20;;;;;;;4.41;100.00;102277.28;5011112;28;20425;-74
2020/12/03 07:56:46;;;;;;;28.47;10.90;;;;;;;4.49;100.00;102277.16;5008506;28;20421;-74
2020/12/03 07:59:24;;;;;;;39.53;13.00;;;;;;;4.49;100.00;102273.69;5011875;28;20975;-77
2020/12/03 08:01:51;;;;;;;39.13;12.90;;;;;;;4.47;100.00;102280.69;5011587;28;20428;-77
2020/12/03 08:04:35;;;;;;;35.00;12.93;;;;;;;4.37;100.00;102285.16;5011695;28;20479;-76
2020/12/03 08:07:04;;;;;;;29.97;12.80;;;;;;;4.54;100.00;102279.69;5011998;28;20449;-75
2020/12/03 08:09:44;;;;;;;25.97;11.87;;;;;;;4.61;100.00;102283.88;5011762;28;20421;-75
2020/12/03 08:12:12;;;;;;;41.17;14.43;;;;;;;4.68;100.00;102278.53;5011397;28;20504;-76
2020/12/03 08:14:46;;;;;;;38.57;13.50;;;;;;;4.66;100.00;102267.31;5011217;28;20444;-76
2020/12/03 08:17:15;;;;;;;36.13;14.73;;;;;;;4.76;100.00;102272.34;5011769;28;20906;-76
2020/12/03 08:19:40;;;;;;;43.13;17.73;;;;;;;4.70;100.00;102270.72;5010850;28;21036;-75
2020/12/03 08:22:29;;;;;;;31.43;14.17;;;;;;;4.96;100.00;102280.66;5010972;28;20433;-75
2020/12/03 08:25:02;;;;;;;29.97;14.13;;;;;;;5.28;100.00;102278.28;5011353;28;20170;-75
2020/12/03 08:27:29;;;;;;;49.43;13.80;;;;;;;5.29;100.00;102277.41;5009451;28;20436;-76
2020/12/03 08:29:54;;;;;;;29.50;12.17;;;;;;;5.55;100.00;102270.81;5007046;28;20938;-75
2020/12/03 08:32:19;;;;;;;38.90;14.77;;;;;;;5.69;100.00;102273.97;5010614;28;20571;-76
2020/12/03 08:34:45;;;;;;;30.17;12.20;;;;;;;5.61;100.00;102262.88;5011149;28;20222;-74
2020/12/03 08:37:16;;;;;;;35.43;14.03;;;;;;;5.63;100.00;102255.84;5009948;28;20180;-75
2020/12/03 08:39:45;;;;;;;35.00;11.17;;;;;;;5.99;100.00;102251.59;5011212;28;20202;-76
2020/12/03 08:42:13;;;;;;;39.57;14.53;;;;;;;6.06;100.00;102244.50;5010355;28;20513;-76
2020/12/03 08:44:41;;;;;;;31.80;12.13;;;;;;;6.37;100.00;102237.63;5011017;28;20432;-76
2020/12/03 08:47:34;;;;;;;38.30;13.80;;;;;;;6.89;100.00;102214.53;4991920;28;20421;-78
2020/12/03 08:50:01;;;;;;;36.83;15.03;;;;;;;7.15;100.00;102203.31;5002170;28;20425;-78
2020/12/03 08:52:26;;;;;;;34.63;15.70;;;;;;;6.92;100.00;102219.66;5008918;28;20898;-74
2020/12/03 08:54:52;;;;;;;25.27;11.73;;;;;;;7.12;100.00;102201.66;5011242;28;20904;-77
2020/12/03 08:57:21;;;;;;;35.47;13.43;;;;;;;6.85;100.00;102211.13;5011042;28;20170;-76
2020/12/03 08:59:54;;;;;;;30.73;12.10;;;;;;;7.07;100.00;102207.91;5011186;28;20170;-77
2020/12/03 09:02:20;;;;;;;29.30;12.20;;;;;;;7.29;100.00;102203.78;5011020;28;20491;-75
2020/12/03 09:04:55;;;;;;;37.20;13.50;;;;;;;7.82;100.00;102203.03;5009473;28;20931;-78
2020/12/03 09:07:29;;;;;;;31.67;13.50;;;;;;;7.98;100.00;102202.50;5011911;28;20409;-76
2020/12/03 09:09:57;;;;;;;30.57;12.87;;;;;;;7.73;100.00;102212.03;5010835;28;20471;-76
2020/12/03 09:12:29;;;;;;;39.60;14.70;;;;;;;7.46;100.00;102216.34;5009449;28;20406;-79
2020/12/03 09:14:59;;;;;;;31.30;12.80;;;;;;;7.14;100.00;102225.13;5010867;28;20444;-76
2020/12/03 09:17:26;;;;;;;34.40;12.40;;;;;;;7.54;100.00;102222.19;5010643;28;20406;-77
2020/12/03 09:19:53;;;;;;;31.97;12.03;;;;;;;7.54;100.00;102213.50;5011090;28;20428;-74
2020/12/03 09:22:22;;;;;;;33.40;12.73;;;;;;;7.69;100.00;102207.78;5010960;28;20444;-75
2020/12/03 09:24:48;;;;;;;28.23;9.97;;;;;;;7.37;100.00;102201.78;5010931;28;20818;-74
2020/12/03 09:27:15;;;;;;;27.93;10.80;;;;;;;7.43;100.00;102200.75;5010617;28;20824;-75
2020/12/03 09:29:48;;;;;;;29.30;11.63;;;;;;;7.56;100.00;102203.84;5010809;28;20409;-76
2020/12/03 09:32:18;;;;;;;40.23;10.10;;;;;;;7.83;100.00;102189.91;4992723;28;20428;-76
2020/12/03 09:34:46;;;;;;;22.90;8.93;;;;;;;8.00;100.00;102187.59;4997281;28;20472;-77
2020/12/03 09:37:12;;;;;;;17.30;7.13;;;;;;;8.06;100.00;102184.78;5008780;28;20844;-77
2020/12/03 09:39:38;;;;;;;21.23;6.17;;;;;;;8.25;100.00;102189.44;5009175;28;20460;-76
2020/12/03 09:42:10;;;;;;;22.33;6.50;;;;;;;8.59;100.00;102182.13;5008205;28;20728;-76
2020/12/03 09:44:36;;;;;;;17.33;5.33;;;;;;;9.06;100.00;102173.47;5014438;28;20428;-76
2020/12/03 09:47:18;;;;;;;14.07;4.33;;;;;;;9.01;100.00;102157.91;5014442;28;20463;-75
2020/12/03 09:49:45;;;;;;;18.63;6.03;;;;;;;8.92;100.00;102167.88;5012831;28;20880;-76
2020/12/03 09:52:14;;;;;;;17.07;6.40;;;;;;;9.15;100.00;102162.66;4999405;28;20846;-76
2020/12/03 09:54:40;;;;;;;18.20;6.60;;;;;;;9.34;100.00;102158.41;5004101;28;20456;-74
2020/12/03 09:57:09;;;;;;;16.10;5.40;;;;;;;9.34;100.00;102153.16;5014710;28;20951;-75
2020/12/03 09:59:36;;;;;;;18.27;6.83;;;;;;;9.69;100.00;102145.66;5004345;28;20560;-73
2020/12/03 10:02:08;;;;;;;16.80;5.50;;;;;;;9.73;100.00;102144.59;5012626;28;20873;-75
2020/12/03 10:05:10;;;;;;;14.90;5.60;;;;;;;9.56;100.00;102133.94;5013116;28;20441;-74
2020/12/03 10:07:48;;;;;;;14.70;5.27;;;;;;;9.41;100.00;102136.25;5013836;28;20802;-75
2020/12/03 10:10:47;;;;;;;13.93;5.60;;;;;;;9.04;100.00;102142.06;5012555;28;20425;-74
2020/12/03 10:13:31;;;;;;;13.00;4.77;;;;;;;9.00;100.00;102139.63;5011956;28;20857;-74
2020/12/03 10:16:07;;;;;;;20.70;5.60;;;;;;;8.72;100.00;102137.16;5013107;28;20482;-73
2020/12/03 10:18:58;;;;;;;16.40;6.10;;;;;;;9.22;100.00;102147.50;5008004;28;20460;-74
2020/12/03 10:21:31;;;;;;;17.73;6.80;;;;;;;8.99;100.00;102141.38;5013630;28;20413;-74
2020/12/03 10:24:19;;;;;;;16.07;5.23;;;;;;;9.14;100.00;102142.56;5012971;28;20954;-74
2020/12/03 10:26:53;;;;;;;18.67;4.77;;;;;;;8.98;100.00;102139.66;5013068;28;20468;-74
2020/12/03 10:30:12;;;;;;;15.20;6.37;;;;;;;8.84;100.00;102139.31;5011581;28;20428;-75
2020/12/03 10:32:44;;;;;;;13.97;5.00;;;;;;;8.88;100.00;102141.78;5000200;28;20429;-77
2020/12/03 10:35:10;;;;;;;14.73;4.93;;;;;;;9.02;100.00;102132.56;5011075;28;20485;-75
2020/12/03 10:37:46;;;;;;;16.63;5.20;;;;;;;9.17;100.00;102129.34;5010841;28;20540;-73
2020/12/03 10:40:14;;;;;;;17.07;6.20;;;;;;;9.07;100.00;102130.63;5013080;28;20440;-74
2020/12/03 10:43:03;;;;;;;21.07;7.07;;;;;;;8.75;100.00;102135.28;5012413;28;20425;-73
2020/12/03 10:45:32;;;;;;;11.87;4.80;;;;;;;8.78;100.00;102135.19;5002516;28;20409;-73
2020/12/03 10:48:07;;;;;;;15.30;5.23;;;;;;;8.88;100.00;102135.69;5012107;28;20413;-74
2020/12/03 10:50:48;;;;;;;23.13;5.90;;;;;;;8.47;100.00;102124.09;5000249;28;20992;-73
2020/12/03 10:53:17;;;;;;;15.03;4.60;;;;;;;8.69;100.00;102127.66;5010785;28;20417;-75
2020/12/03 10:55:44;;;;;;;17.23;5.30;;;;;;;9.01;100.00;102117.75;5011003;28;20402;-75
2020/12/03 10:58:13;;;;;;;11.93;4.73;;;;;;;9.16;100.00;102114.53;5008129;28;20445;-75
2020/12/03 11:00:42;;;;;;;13.20;5.10;;;;;;;9.00;100.00;102102.94;5009566;28;20413;-75
2020/12/03 11:03:13;;;;;;;12.63;4.80;;;;;;;9.15;100.00;102103.19;5012055;28;20949;-74
2020/12/03 11:05:47;;;;;;;14.90;4.60;;;;;;;9.15;100.00;102102.34;5010966;28;20410;-75
2020/12/03 11:08:13;;;;;;;13.50;5.40;;;;;;;9.08;100.00;102100.88;5012403;28;20863;-75
2020/12/03 11:10:41;;;;;;;12.20;4.77;;;;;;;8.73;100.00;102105.66;5012264;28;20417;-75
2020/12/03 11:13:07;;;;;;;14.97;4.57;;;;;;;9.05;100.00;102098.34;5011692;28;20425;-76
2020/12/03 11:15:34;;;;;;;15.53;4.30;;;;;;;9.39;100.00;102093.50;5012633;28;20436;-77
2020/12/03 11:18:05;;;;;;;12.30;4.67;;;;;;;9.58;100.00;102096.22;5011816;28;20541;-73
2020/12/03 11:20:33;;;;;;;15.40;5.23;;;;;;;9.72;100.00;102093.03;5006835;28;20516;-74
2020/12/03 11:23:08;;;;;;;11.63;4.57;;;;;;;9.58;100.00;102085.72;5011824;28;20426;-76
2020/12/03 11:25:35;;;;;;;12.17;3.47;;;;;;;9.28;100.00;102089.59;5011786;28;20451;-74
2020/12/03 11:28:30;;;;;;;22.70;4.47;;;;;;;8.96;100.00;102086.47;5011405;28;20431;-74
2020/12/03 11:31:02;;;;;;;15.57;4.30;;;;;;;8.78;100.00;102082.78;5007722;28;20441;-73
2020/12/03 11:33:31;;;;;;;13.47;5.00;;;;;;;9.01;100.00;102078.44;5011785;28;20414;-72
2020/12/03 11:36:07;;;;;;;13.17;4.17;;;;;;;8.65;100.00;102075.44;5011812;28;20469;-73